sensor_id;sensor_type;location;lat;lon;timestamp;temperature;humidity
74657;DHT22;63185;45.642;13.764;2024-02-28T00:00:04;15.10;65.10
74657;DHT22;63185;45.642;13.764;2024-02-28T00:02:30;15.20;65.40
74657;DHT22;63185;45.642;13.764;2024-02-28T00:04:56;15.20;65.20
74657;DHT22;63185;45.642;13.764;2024-02-28T00:07:24;15.20;65.10
74657;DHT22;63185;45.642;13.764;2024-02-28T00:09:50;15.20;65.20
74657;DHT22;63185;45.642;13.764;2024-02-28T00:12:15;15.20;65.00
74657;DHT22;63185;45.642;13.764;2024-02-28T00:14:41;15.20;65.00
74657;DHT22;63185;45.642;13.764;2024-02-28T00:17:07;15.30;64.70
74657;DHT22;63185;45.642;13.764;2024-02-28T00:19:33;15.20;64.80
74657;DHT22;63185;45.642;13.764;2024-02-28T00:21:58;15.20;64.90
74657;DHT22;63185;45.642;13.764;2024-02-28T00:24:25;15.20;65.10
74657;DHT22;63185;45.642;13.764;2024-02-28T00:26:51;15.20;65.00
74657;DHT22;63185;45.642;13.764;2024-02-28T00:29:17;15.10;65.20
74657;DHT22;63185;45.642;13.764;2024-02-28T00:31:42;15.10;65.20
74657;DHT22;63185;45.642;13.764;2024-02-28T00:34:08;15.10;65.20
74657;DHT22;63185;45.642;13.764;2024-02-28T00:36:34;15.20;65.30
74657;DHT22;63185;45.642;13.764;2024-02-28T00:39:00;15.10;65.40
74657;DHT22;63185;45.642;13.764;2024-02-28T00:41:25;15.10;65.20
74657;DHT22;63185;45.642;13.764;2024-02-28T00:43:51;15.20;65.20
74657;DHT22;63185;45.642;13.764;2024-02-28T00:46:17;15.20;64.90
74657;DHT22;63185;45.642;13.764;2024-02-28T00:48:42;15.20;64.90
74657;DHT22;63185;45.642;13.764;2024-02-28T00:51:08;15.20;65.30
74657;DHT22;63185;45.642;13.764;2024-02-28T00:53:34;15.20;65.30
74657;DHT22;63185;45.642;13.764;2024-02-28T00:56:00;15.10;65.40
74657;DHT22;63185;45.642;13.764;2024-02-28T00:58:25;15.20;65.10
74657;DHT22;63185;45.642;13.764;2024-02-28T01:00:53;15.30;64.90
74657;DHT22;63185;45.642;13.764;2024-02-28T01:03:19;15.20;65.10
74657;DHT22;63185;45.642;13.764;2024-02-28T01:05:45;15.30;65.00
74657;DHT22;63185;45.642;13.764;2024-02-28T01:08:10;15.30;65.40
74657;DHT22;63185;45.642;13.764;2024-02-28T01:10:36;15.20;65.20
74657;DHT22;63185;45.642;13.764;2024-02-28T01:13:03;15.20;65.50
74657;DHT22;63185;45.642;13.764;2024-02-28T01:15:29;15.30;65.20
74657;DHT22;63185;45.642;13.764;2024-02-28T01:17:55;15.20;64.70
74657;DHT22;63185;45.642;13.764;2024-02-28T01:20:20;15.30;64.90
74657;DHT22;63185;45.642;13.764;2024-02-28T01:22:46;15.30;64.50
74657;DHT22;63185;45.642;13.764;2024-02-28T01:25:13;15.30;64.80
74657;DHT22;63185;45.642;13.764;2024-02-28T01:27:38;15.30;65.00
74657;DHT22;63185;45.642;13.764;2024-02-28T01:30:04;15.30;64.80
74657;DHT22;63185;45.642;13.764;2024-02-28T01:32:31;15.30;65.00
74657;DHT22;63185;45.642;13.764;2024-02-28T01:34:56;15.20;65.50
74657;DHT22;63185;45.642;13.764;2024-02-28T01:37:22;15.20;65.30
74657;DHT22;63185;45.642;13.764;2024-02-28T01:39:48;15.20;65.70
74657;DHT22;63185;45.642;13.764;2024-02-28T01:42:14;15.20;65.20
74657;DHT22;63185;45.642;13.764;2024-02-28T01:44:46;15.10;65.10
74657;DHT22;63185;45.642;13.764;2024-02-28T01:47:12;15.10;65.40
74657;DHT22;63185;45.642;13.764;2024-02-28T01:49:40;15.20;64.70
74657;DHT22;63185;45.642;13.764;2024-02-28T01:52:07;15.20;64.80
74657;DHT22;63185;45.642;13.764;2024-02-28T01:54:34;15.20;64.90
74657;DHT22;63185;45.642;13.764;2024-02-28T01:57:01;15.20;65.00
74657;DHT22;63185;45.642;13.764;2024-02-28T01:59:28;15.20;64.80
74657;DHT22;63185;45.642;13.764;2024-02-28T02:01:55;15.30;65.10
74657;DHT22;63185;45.642;13.764;2024-02-28T02:04:21;15.30;65.00
74657;DHT22;63185;45.642;13.764;2024-02-28T02:06:47;15.30;64.90
74657;DHT22;63185;45.642;13.764;2024-02-28T02:09:13;15.30;65.10
74657;DHT22;63185;45.642;13.764;2024-02-28T02:11:39;15.30;64.90
74657;DHT22;63185;45.642;13.764;2024-02-28T02:14:05;15.20;64.60
74657;DHT22;63185;45.642;13.764;2024-02-28T02:16:31;15.30;64.60
74657;DHT22;63185;45.642;13.764;2024-02-28T02:18:57;15.30;64.20
74657;DHT22;63185;45.642;13.764;2024-02-28T02:21:23;15.30;64.30
74657;DHT22;63185;45.642;13.764;2024-02-28T02:23:50;15.30;63.80
74657;DHT22;63185;45.642;13.764;2024-02-28T02:26:16;15.40;63.40
74657;DHT22;63185;45.642;13.764;2024-02-28T02:28:41;15.40;63.70
74657;DHT22;63185;45.642;13.764;2024-02-28T02:31:08;15.40;63.70
74657;DHT22;63185;45.642;13.764;2024-02-28T02:33:33;15.30;63.40
74657;DHT22;63185;45.642;13.764;2024-02-28T02:35:59;15.40;63.50
74657;DHT22;63185;45.642;13.764;2024-02-28T02:38:25;15.30;63.50
74657;DHT22;63185;45.642;13.764;2024-02-28T02:40:51;15.30;63.90
74657;DHT22;63185;45.642;13.764;2024-02-28T02:43:17;15.30;64.20
74657;DHT22;63185;45.642;13.764;2024-02-28T02:45:43;15.30;64.30
74657;DHT22;63185;45.642;13.764;2024-02-28T02:48:09;15.20;64.60
74657;DHT22;63185;45.642;13.764;2024-02-28T02:50:35;15.20;64.50
74657;DHT22;63185;45.642;13.764;2024-02-28T02:53:01;15.20;64.00
74657;DHT22;63185;45.642;13.764;2024-02-28T02:55:27;15.20;64.20
74657;DHT22;63185;45.642;13.764;2024-02-28T02:57:53;15.10;64.60
74657;DHT22;63185;45.642;13.764;2024-02-28T03:00:18;15.20;64.60
74657;DHT22;63185;45.642;13.764;2024-02-28T03:02:44;15.10;64.50
74657;DHT22;63185;45.642;13.764;2024-02-28T03:05:10;15.20;64.70
74657;DHT22;63185;45.642;13.764;2024-02-28T03:07:35;15.20;64.80
74657;DHT22;63185;45.642;13.764;2024-02-28T03:10:01;15.20;64.70
74657;DHT22;63185;45.642;13.764;2024-02-28T03:12:28;15.20;64.50
74657;DHT22;63185;45.642;13.764;2024-02-28T03:14:54;15.20;64.60
74657;DHT22;63185;45.642;13.764;2024-02-28T03:17:19;15.20;64.60
74657;DHT22;63185;45.642;13.764;2024-02-28T03:19:45;15.20;64.40
74657;DHT22;63185;45.642;13.764;2024-02-28T03:22:11;15.20;64.40
74657;DHT22;63185;45.642;13.764;2024-02-28T03:24:37;15.20;64.60
74657;DHT22;63185;45.642;13.764;2024-02-28T03:27:03;15.10;64.90
74657;DHT22;63185;45.642;13.764;2024-02-28T03:29:28;15.10;64.90
74657;DHT22;63185;45.642;13.764;2024-02-28T03:31:54;15.10;65.10
74657;DHT22;63185;45.642;13.764;2024-02-28T03:34:20;15.10;65.00
74657;DHT22;63185;45.642;13.764;2024-02-28T03:36:46;15.10;64.90
74657;DHT22;63185;45.642;13.764;2024-02-28T03:39:12;15.10;64.90
74657;DHT22;63185;45.642;13.764;2024-02-28T03:41:37;15.10;64.90
74657;DHT22;63185;45.642;13.764;2024-02-28T03:44:04;15.10;65.00
74657;DHT22;63185;45.642;13.764;2024-02-28T03:46:29;15.10;65.00
74657;DHT22;63185;45.642;13.764;2024-02-28T03:48:55;15.10;64.70
74657;DHT22;63185;45.642;13.764;2024-02-28T03:51:21;15.10;65.30
74657;DHT22;63185;45.642;13.764;2024-02-28T03:53:47;15.10;65.80
74657;DHT22;63185;45.642;13.764;2024-02-28T03:56:13;15.10;66.00
74657;DHT22;63185;45.642;13.764;2024-02-28T03:58:40;15.10;65.80
74657;DHT22;63185;45.642;13.764;2024-02-28T04:01:05;15.10;65.70
74657;DHT22;63185;45.642;13.764;2024-02-28T04:03:31;15.10;65.70
74657;DHT22;63185;45.642;13.764;2024-02-28T04:05:57;15.00;65.40
74657;DHT22;63185;45.642;13.764;2024-02-28T04:08:23;15.00;65.10
74657;DHT22;63185;45.642;13.764;2024-02-28T04:10:49;15.10;65.20
74657;DHT22;63185;45.642;13.764;2024-02-28T04:13:16;15.10;64.80
74657;DHT22;63185;45.642;13.764;2024-02-28T04:15:43;15.20;64.00
74657;DHT22;63185;45.642;13.764;2024-02-28T04:18:11;15.20;64.00
74657;DHT22;63185;45.642;13.764;2024-02-28T04:20:36;15.20;64.50
74657;DHT22;63185;45.642;13.764;2024-02-28T04:23:04;15.20;64.40
74657;DHT22;63185;45.642;13.764;2024-02-28T04:25:29;15.20;63.80
74657;DHT22;63185;45.642;13.764;2024-02-28T04:27:55;15.20;64.60
74657;DHT22;63185;45.642;13.764;2024-02-28T04:30:22;15.20;64.40
74657;DHT22;63185;45.642;13.764;2024-02-28T04:32:48;15.30;64.30
74657;DHT22;63185;45.642;13.764;2024-02-28T04:35:14;15.20;64.40
74657;DHT22;63185;45.642;13.764;2024-02-28T04:37:44;15.20;64.50
74657;DHT22;63185;45.642;13.764;2024-02-28T04:40:10;15.20;64.50
74657;DHT22;63185;45.642;13.764;2024-02-28T04:42:37;15.20;64.30
74657;DHT22;63185;45.642;13.764;2024-02-28T04:45:04;15.20;64.00
74657;DHT22;63185;45.642;13.764;2024-02-28T04:47:29;15.20;64.20
74657;DHT22;63185;45.642;13.764;2024-02-28T04:49:56;15.20;64.20
74657;DHT22;63185;45.642;13.764;2024-02-28T04:52:22;15.30;63.90
74657;DHT22;63185;45.642;13.764;2024-02-28T04:54:48;15.30;64.10
74657;DHT22;63185;45.642;13.764;2024-02-28T04:57:14;15.30;64.10
74657;DHT22;63185;45.642;13.764;2024-02-28T04:59:42;15.20;64.30
74657;DHT22;63185;45.642;13.764;2024-02-28T05:02:08;15.30;64.00
74657;DHT22;63185;45.642;13.764;2024-02-28T05:04:34;15.30;63.80
74657;DHT22;63185;45.642;13.764;2024-02-28T05:07:00;15.30;63.80
74657;DHT22;63185;45.642;13.764;2024-02-28T05:09:25;15.30;63.90
74657;DHT22;63185;45.642;13.764;2024-02-28T05:11:51;15.30;64.00
74657;DHT22;63185;45.642;13.764;2024-02-28T05:14:17;15.30;64.20
74657;DHT22;63185;45.642;13.764;2024-02-28T05:16:42;15.30;64.40
74657;DHT22;63185;45.642;13.764;2024-02-28T05:19:08;15.20;64.60
74657;DHT22;63185;45.642;13.764;2024-02-28T05:21:42;15.20;64.70
74657;DHT22;63185;45.642;13.764;2024-02-28T05:24:08;15.20;65.10
74657;DHT22;63185;45.642;13.764;2024-02-28T05:26:35;15.20;65.10
74657;DHT22;63185;45.642;13.764;2024-02-28T05:29:00;15.20;65.10
74657;DHT22;63185;45.642;13.764;2024-02-28T05:31:27;15.20;65.00
74657;DHT22;63185;45.642;13.764;2024-02-28T05:33:53;15.20;64.70
74657;DHT22;63185;45.642;13.764;2024-02-28T05:36:21;15.20;64.70
74657;DHT22;63185;45.642;13.764;2024-02-28T05:38:47;15.20;64.50
74657;DHT22;63185;45.642;13.764;2024-02-28T05:41:13;15.20;64.70
74657;DHT22;63185;45.642;13.764;2024-02-28T05:43:40;15.20;65.20
74657;DHT22;63185;45.642;13.764;2024-02-28T05:46:06;15.10;65.00
74657;DHT22;63185;45.642;13.764;2024-02-28T05:48:32;15.10;65.30
74657;DHT22;63185;45.642;13.764;2024-02-28T05:50:57;15.20;65.20
74657;DHT22;63185;45.642;13.764;2024-02-28T05:53:23;15.20;65.30
74657;DHT22;63185;45.642;13.764;2024-02-28T05:55:52;15.20;65.10
74657;DHT22;63185;45.642;13.764;2024-02-28T05:58:19;15.20;65.00
74657;DHT22;63185;45.642;13.764;2024-02-28T06:00:45;15.20;65.10
74657;DHT22;63185;45.642;13.764;2024-02-28T06:03:10;15.20;65.20
74657;DHT22;63185;45.642;13.764;2024-02-28T06:05:36;15.20;65.10
74657;DHT22;63185;45.642;13.764;2024-02-28T06:08:02;15.20;65.30
74657;DHT22;63185;45.642;13.764;2024-02-28T06:10:27;15.20;65.40
74657;DHT22;63185;45.642;13.764;2024-02-28T06:12:54;15.20;65.20
74657;DHT22;63185;45.642;13.764;2024-02-28T06:15:19;15.30;64.80
74657;DHT22;63185;45.642;13.764;2024-02-28T06:17:45;15.30;64.80
74657;DHT22;63185;45.642;13.764;2024-02-28T06:20:11;15.30;64.90
74657;DHT22;63185;45.642;13.764;2024-02-28T06:22:36;15.30;64.80
74657;DHT22;63185;45.642;13.764;2024-02-28T06:25:02;15.40;64.70
74657;DHT22;63185;45.642;13.764;2024-02-28T06:27:28;15.40;64.30
74657;DHT22;63185;45.642;13.764;2024-02-28T06:29:53;15.50;63.40
74657;DHT22;63185;45.642;13.764;2024-02-28T06:32:19;15.50;63.10
74657;DHT22;63185;45.642;13.764;2024-02-28T06:34:45;15.60;63.40
74657;DHT22;63185;45.642;13.764;2024-02-28T06:37:10;15.60;62.50
74657;DHT22;63185;45.642;13.764;2024-02-28T06:39:36;15.60;62.10
74657;DHT22;63185;45.642;13.764;2024-02-28T06:42:02;15.70;61.60
74657;DHT22;63185;45.642;13.764;2024-02-28T06:44:28;15.70;61.70
74657;DHT22;63185;45.642;13.764;2024-02-28T06:46:54;15.80;61.80
74657;DHT22;63185;45.642;13.764;2024-02-28T06:49:19;15.90;61.60
74657;DHT22;63185;45.642;13.764;2024-02-28T06:51:45;15.90;61.30
74657;DHT22;63185;45.642;13.764;2024-02-28T06:54:11;15.90;62.00
74657;DHT22;63185;45.642;13.764;2024-02-28T06:56:36;16.00;62.10
74657;DHT22;63185;45.642;13.764;2024-02-28T06:59:02;16.00;61.60
74657;DHT22;63185;45.642;13.764;2024-02-28T07:01:29;16.00;61.70
74657;DHT22;63185;45.642;13.764;2024-02-28T07:03:55;16.10;61.60
74657;DHT22;63185;45.642;13.764;2024-02-28T07:06:20;16.20;61.60
74657;DHT22;63185;45.642;13.764;2024-02-28T07:08:46;16.20;61.30
74657;DHT22;63185;45.642;13.764;2024-02-28T07:11:15;16.40;61.10
74657;DHT22;63185;45.642;13.764;2024-02-28T07:13:41;16.40;61.10
74657;DHT22;63185;45.642;13.764;2024-02-28T07:16:07;16.40;61.30
74657;DHT22;63185;45.642;13.764;2024-02-28T07:18:33;16.40;61.30
74657;DHT22;63185;45.642;13.764;2024-02-28T07:20:59;16.30;61.90
74657;DHT22;63185;45.642;13.764;2024-02-28T07:23:25;16.30;61.50
74657;DHT22;63185;45.642;13.764;2024-02-28T07:25:51;16.30;61.30
74657;DHT22;63185;45.642;13.764;2024-02-28T07:28:16;16.40;61.10
74657;DHT22;63185;45.642;13.764;2024-02-28T07:30:42;16.50;61.20
74657;DHT22;63185;45.642;13.764;2024-02-28T07:33:09;16.60;61.10
74657;DHT22;63185;45.642;13.764;2024-02-28T07:35:45;16.60;60.90
74657;DHT22;63185;45.642;13.764;2024-02-28T07:38:11;16.60;60.30
74657;DHT22;63185;45.642;13.764;2024-02-28T07:40:37;16.80;60.50
74657;DHT22;63185;45.642;13.764;2024-02-28T07:43:02;16.90;60.10
74657;DHT22;63185;45.642;13.764;2024-02-28T07:45:28;17.00;60.10
74657;DHT22;63185;45.642;13.764;2024-02-28T07:47:54;17.10;60.00
74657;DHT22;63185;45.642;13.764;2024-02-28T07:50:19;17.10;59.60
74657;DHT22;63185;45.642;13.764;2024-02-28T07:52:45;17.20;59.30
74657;DHT22;63185;45.642;13.764;2024-02-28T07:55:11;17.20;59.40
74657;DHT22;63185;45.642;13.764;2024-02-28T07:57:37;17.30;58.80
74657;DHT22;63185;45.642;13.764;2024-02-28T08:00:03;17.30;59.00
74657;DHT22;63185;45.642;13.764;2024-02-28T08:02:29;17.30;58.70
74657;DHT22;63185;45.642;13.764;2024-02-28T08:04:55;17.30;58.70
74657;DHT22;63185;45.642;13.764;2024-02-28T08:07:21;17.40;58.40
74657;DHT22;63185;45.642;13.764;2024-02-28T08:09:47;17.50;58.20
74657;DHT22;63185;45.642;13.764;2024-02-28T08:12:12;17.50;58.60
74657;DHT22;63185;45.642;13.764;2024-02-28T08:14:38;17.60;58.50
74657;DHT22;63185;45.642;13.764;2024-02-28T08:17:04;17.60;58.30
74657;DHT22;63185;45.642;13.764;2024-02-28T08:19:30;17.70;57.90
74657;DHT22;63185;45.642;13.764;2024-02-28T08:21:55;17.80;57.30
74657;DHT22;63185;45.642;13.764;2024-02-28T08:24:21;18.00;57.00
74657;DHT22;63185;45.642;13.764;2024-02-28T08:26:47;18.00;57.40
74657;DHT22;63185;45.642;13.764;2024-02-28T08:29:12;18.20;57.50
74657;DHT22;63185;45.642;13.764;2024-02-28T08:31:43;18.20;57.00
74657;DHT22;63185;45.642;13.764;2024-02-28T08:34:09;18.30;57.00
74657;DHT22;63185;45.642;13.764;2024-02-28T08:36:35;18.40;56.70
74657;DHT22;63185;45.642;13.764;2024-02-28T08:39:01;18.50;56.90
74657;DHT22;63185;45.642;13.764;2024-02-28T08:41:27;18.50;56.60
74657;DHT22;63185;45.642;13.764;2024-02-28T08:43:52;18.50;56.80
74657;DHT22;63185;45.642;13.764;2024-02-28T08:46:18;18.50;56.70
74657;DHT22;63185;45.642;13.764;2024-02-28T08:48:44;18.50;57.00
74657;DHT22;63185;45.642;13.764;2024-02-28T08:51:09;18.60;56.70
74657;DHT22;63185;45.642;13.764;2024-02-28T08:53:35;18.50;56.80
74657;DHT22;63185;45.642;13.764;2024-02-28T08:56:00;18.50;56.90
74657;DHT22;63185;45.642;13.764;2024-02-28T08:58:26;18.40;56.40
74657;DHT22;63185;45.642;13.764;2024-02-28T09:00:52;18.50;56.50
74657;DHT22;63185;45.642;13.764;2024-02-28T09:03:18;18.50;56.30
74657;DHT22;63185;45.642;13.764;2024-02-28T09:05:45;18.50;56.30
74657;DHT22;63185;45.642;13.764;2024-02-28T09:08:10;18.50;56.50
74657;DHT22;63185;45.642;13.764;2024-02-28T09:10:36;18.40;56.40
74657;DHT22;63185;45.642;13.764;2024-02-28T09:13:01;18.40;56.00
74657;DHT22;63185;45.642;13.764;2024-02-28T09:15:27;18.40;56.30
74657;DHT22;63185;45.642;13.764;2024-02-28T09:17:53;18.40;56.30
74657;DHT22;63185;45.642;13.764;2024-02-28T09:20:18;18.30;56.10
74657;DHT22;63185;45.642;13.764;2024-02-28T09:22:44;18.40;56.50
74657;DHT22;63185;45.642;13.764;2024-02-28T09:25:10;18.40;56.40
74657;DHT22;63185;45.642;13.764;2024-02-28T09:27:36;18.50;55.90
74657;DHT22;63185;45.642;13.764;2024-02-28T09:30:02;18.50;55.90
74657;DHT22;63185;45.642;13.764;2024-02-28T09:32:28;18.50;55.90
74657;DHT22;63185;45.642;13.764;2024-02-28T09:34:54;18.50;55.60
74657;DHT22;63185;45.642;13.764;2024-02-28T09:37:19;18.60;56.20
74657;DHT22;63185;45.642;13.764;2024-02-28T09:39:49;18.60;56.10
74657;DHT22;63185;45.642;13.764;2024-02-28T09:42:15;18.80;55.70
74657;DHT22;63185;45.642;13.764;2024-02-28T09:44:43;18.90;54.80
74657;DHT22;63185;45.642;13.764;2024-02-28T09:47:08;18.90;54.90
74657;DHT22;63185;45.642;13.764;2024-02-28T09:49:35;19.10;54.80
74657;DHT22;63185;45.642;13.764;2024-02-28T09:52:03;19.10;54.10
74657;DHT22;63185;45.642;13.764;2024-02-28T09:54:29;19.20;54.20
74657;DHT22;63185;45.642;13.764;2024-02-28T09:56:55;19.30;53.90
74657;DHT22;63185;45.642;13.764;2024-02-28T09:59:24;19.30;53.80
74657;DHT22;63185;45.642;13.764;2024-02-28T10:02:00;19.50;53.90
74657;DHT22;63185;45.642;13.764;2024-02-28T10:04:27;19.50;53.40
74657;DHT22;63185;45.642;13.764;2024-02-28T10:06:56;19.60;53.00
74657;DHT22;63185;45.642;13.764;2024-02-28T10:09:22;19.60;53.00
74657;DHT22;63185;45.642;13.764;2024-02-28T10:11:47;19.70;52.00
74657;DHT22;63185;45.642;13.764;2024-02-28T10:14:17;19.80;52.80
74657;DHT22;63185;45.642;13.764;2024-02-28T10:16:44;19.90;52.50
74657;DHT22;63185;45.642;13.764;2024-02-28T10:19:09;19.90;52.30
74657;DHT22;63185;45.642;13.764;2024-02-28T10:21:35;20.10;52.20
74657;DHT22;63185;45.642;13.764;2024-02-28T10:24:01;20.10;52.30
74657;DHT22;63185;45.642;13.764;2024-02-28T10:26:26;20.20;52.00
74657;DHT22;63185;45.642;13.764;2024-02-28T10:28:52;20.20;51.80
74657;DHT22;63185;45.642;13.764;2024-02-28T10:31:21;20.20;51.40
74657;DHT22;63185;45.642;13.764;2024-02-28T10:33:47;20.30;50.80
74657;DHT22;63185;45.642;13.764;2024-02-28T10:36:13;20.40;50.70
74657;DHT22;63185;45.642;13.764;2024-02-28T10:38:38;20.60;50.60
74657;DHT22;63185;45.642;13.764;2024-02-28T10:41:04;20.70;49.30
74657;DHT22;63185;45.642;13.764;2024-02-28T10:43:31;20.60;48.40
74657;DHT22;63185;45.642;13.764;2024-02-28T10:45:57;20.80;48.20
74657;DHT22;63185;45.642;13.764;2024-02-28T10:48:26;20.80;48.30
74657;DHT22;63185;45.642;13.764;2024-02-28T10:50:52;20.90;48.00
74657;DHT22;63185;45.642;13.764;2024-02-28T10:53:22;20.90;46.40
74657;DHT22;63185;45.642;13.764;2024-02-28T10:55:55;20.90;46.90
74657;DHT22;63185;45.642;13.764;2024-02-28T10:58:24;20.90;46.60
74657;DHT22;63185;45.642;13.764;2024-02-28T11:00:53;20.60;47.80
74657;DHT22;63185;45.642;13.764;2024-02-28T11:03:20;20.20;49.60
74657;DHT22;63185;45.642;13.764;2024-02-28T11:05:46;20.00;51.30
74657;DHT22;63185;45.642;13.764;2024-02-28T11:08:26;19.90;51.30
74657;DHT22;63185;45.642;13.764;2024-02-28T11:11:01;19.90;51.30
74657;DHT22;63185;45.642;13.764;2024-02-28T11:13:28;19.90;52.10
74657;DHT22;63185;45.642;13.764;2024-02-28T11:16:07;19.90;51.80
74657;DHT22;63185;45.642;13.764;2024-02-28T11:18:33;19.70;50.60
74657;DHT22;63185;45.642;13.764;2024-02-28T11:20:59;19.60;52.10
74657;DHT22;63185;45.642;13.764;2024-02-28T11:23:24;19.70;52.10
74657;DHT22;63185;45.642;13.764;2024-02-28T11:25:51;19.70;52.40
74657;DHT22;63185;45.642;13.764;2024-02-28T11:28:17;19.80;52.40
74657;DHT22;63185;45.642;13.764;2024-02-28T11:30:48;19.90;52.40
74657;DHT22;63185;45.642;13.764;2024-02-28T11:33:13;20.00;52.70
74657;DHT22;63185;45.642;13.764;2024-02-28T11:35:39;20.20;51.40
74657;DHT22;63185;45.642;13.764;2024-02-28T11:38:06;20.30;51.40
74657;DHT22;63185;45.642;13.764;2024-02-28T11:40:32;20.30;51.90
74657;DHT22;63185;45.642;13.764;2024-02-28T11:42:58;20.30;52.50
74657;DHT22;63185;45.642;13.764;2024-02-28T11:45:24;20.40;52.20
74657;DHT22;63185;45.642;13.764;2024-02-28T11:47:51;20.60;52.90
74657;DHT22;63185;45.642;13.764;2024-02-28T11:50:16;20.50;53.40
74657;DHT22;63185;45.642;13.764;2024-02-28T11:52:44;20.40;53.50
74657;DHT22;63185;45.642;13.764;2024-02-28T11:55:09;20.50;54.10
74657;DHT22;63185;45.642;13.764;2024-02-28T11:57:37;20.30;55.40
74657;DHT22;63185;45.642;13.764;2024-02-28T12:00:07;19.90;55.70
74657;DHT22;63185;45.642;13.764;2024-02-28T12:02:33;19.80;58.00
74657;DHT22;63185;45.642;13.764;2024-02-28T12:05:05;19.40;58.10
74657;DHT22;63185;45.642;13.764;2024-02-28T12:07:31;19.10;58.60
74657;DHT22;63185;45.642;13.764;2024-02-28T12:09:57;18.90;57.90
74657;DHT22;63185;45.642;13.764;2024-02-28T12:12:23;19.00;58.20
74657;DHT22;63185;45.642;13.764;2024-02-28T12:14:50;18.90;58.10
74657;DHT22;63185;45.642;13.764;2024-02-28T12:17:16;18.80;56.70
74657;DHT22;63185;45.642;13.764;2024-02-28T12:19:41;18.70;57.80
74657;DHT22;63185;45.642;13.764;2024-02-28T12:22:08;19.00;58.40
74657;DHT22;63185;45.642;13.764;2024-02-28T12:24:34;19.10;58.40
74657;DHT22;63185;45.642;13.764;2024-02-28T12:26:59;19.20;58.10
74657;DHT22;63185;45.642;13.764;2024-02-28T12:29:25;19.10;57.40
74657;DHT22;63185;45.642;13.764;2024-02-28T12:31:51;19.00;57.60
74657;DHT22;63185;45.642;13.764;2024-02-28T12:34:16;18.90;57.40
74657;DHT22;63185;45.642;13.764;2024-02-28T12:36:42;18.90;58.00
74657;DHT22;63185;45.642;13.764;2024-02-28T12:39:08;18.90;58.20
74657;DHT22;63185;45.642;13.764;2024-02-28T12:41:39;18.80;57.90
74657;DHT22;63185;45.642;13.764;2024-02-28T12:44:06;18.70;59.00
74657;DHT22;63185;45.642;13.764;2024-02-28T12:46:33;18.60;59.00
74657;DHT22;63185;45.642;13.764;2024-02-28T12:48:59;18.40;59.20
74657;DHT22;63185;45.642;13.764;2024-02-28T12:51:41;18.40;59.60
74657;DHT22;63185;45.642;13.764;2024-02-28T12:54:08;18.20;59.20
74657;DHT22;63185;45.642;13.764;2024-02-28T12:56:35;18.20;59.70
74657;DHT22;63185;45.642;13.764;2024-02-28T12:59:01;18.30;59.70
74657;DHT22;63185;45.642;13.764;2024-02-28T13:01:27;18.40;59.80
74657;DHT22;63185;45.642;13.764;2024-02-28T13:03:52;18.60;59.40
74657;DHT22;63185;45.642;13.764;2024-02-28T13:06:18;18.70;59.10
74657;DHT22;63185;45.642;13.764;2024-02-28T13:08:44;18.80;59.00
74657;DHT22;63185;45.642;13.764;2024-02-28T13:11:11;18.70;58.20
74657;DHT22;63185;45.642;13.764;2024-02-28T13:13:37;18.70;58.60
74657;DHT22;63185;45.642;13.764;2024-02-28T13:16:03;18.70;58.30
74657;DHT22;63185;45.642;13.764;2024-02-28T13:18:28;18.70;58.30
74657;DHT22;63185;45.642;13.764;2024-02-28T13:20:54;18.70;57.90
74657;DHT22;63185;45.642;13.764;2024-02-28T13:23:20;18.60;59.10
74657;DHT22;63185;45.642;13.764;2024-02-28T13:25:45;18.80;58.10
74657;DHT22;63185;45.642;13.764;2024-02-28T13:28:11;18.70;58.10
74657;DHT22;63185;45.642;13.764;2024-02-28T13:30:36;18.60;57.90
74657;DHT22;63185;45.642;13.764;2024-02-28T13:33:03;18.60;58.20
74657;DHT22;63185;45.642;13.764;2024-02-28T13:35:29;18.60;58.50
74657;DHT22;63185;45.642;13.764;2024-02-28T13:37:56;18.90;58.10
74657;DHT22;63185;45.642;13.764;2024-02-28T13:40:26;18.90;57.80
74657;DHT22;63185;45.642;13.764;2024-02-28T13:42:52;18.80;58.00
74657;DHT22;63185;45.642;13.764;2024-02-28T13:45:18;18.90;58.60
74657;DHT22;63185;45.642;13.764;2024-02-28T13:47:43;18.90;58.20
74657;DHT22;63185;45.642;13.764;2024-02-28T13:50:09;18.90;58.90
74657;DHT22;63185;45.642;13.764;2024-02-28T13:52:36;19.00;58.30
74657;DHT22;63185;45.642;13.764;2024-02-28T13:55:02;18.80;58.60
74657;DHT22;63185;45.642;13.764;2024-02-28T13:57:27;18.90;58.90
74657;DHT22;63185;45.642;13.764;2024-02-28T13:59:53;18.80;59.20
74657;DHT22;63185;45.642;13.764;2024-02-28T14:02:21;18.80;59.40
74657;DHT22;63185;45.642;13.764;2024-02-28T14:04:47;18.90;59.70
74657;DHT22;63185;45.642;13.764;2024-02-28T14:07:15;19.00;59.90
74657;DHT22;63185;45.642;13.764;2024-02-28T14:09:41;19.10;59.40
74657;DHT22;63185;45.642;13.764;2024-02-28T14:12:09;19.00;59.60
74657;DHT22;63185;45.642;13.764;2024-02-28T14:14:35;18.90;60.20
74657;DHT22;63185;45.642;13.764;2024-02-28T14:17:00;18.70;60.80
74657;DHT22;63185;45.642;13.764;2024-02-28T14:19:26;18.80;60.80
74657;DHT22;63185;45.642;13.764;2024-02-28T14:21:52;18.90;60.70
74657;DHT22;63185;45.642;13.764;2024-02-28T14:24:18;19.00;60.40
74657;DHT22;63185;45.642;13.764;2024-02-28T14:26:46;18.90;60.20
74657;DHT22;63185;45.642;13.764;2024-02-28T14:29:11;18.90;60.10
74657;DHT22;63185;45.642;13.764;2024-02-28T14:31:37;18.70;60.40
74657;DHT22;63185;45.642;13.764;2024-02-28T14:34:03;18.70;60.80
74657;DHT22;63185;45.642;13.764;2024-02-28T14:36:31;18.70;61.10
74657;DHT22;63185;45.642;13.764;2024-02-28T14:38:57;18.80;62.50
74657;DHT22;63185;45.642;13.764;2024-02-28T14:41:23;18.80;64.10
74657;DHT22;63185;45.642;13.764;2024-02-28T14:43:49;18.70;65.50
74657;DHT22;63185;45.642;13.764;2024-02-28T14:46:15;18.70;66.10
74657;DHT22;63185;45.642;13.764;2024-02-28T14:48:43;18.70;67.50
74657;DHT22;63185;45.642;13.764;2024-02-28T14:51:17;18.60;68.90
74657;DHT22;63185;45.642;13.764;2024-02-28T14:53:43;18.50;69.80
74657;DHT22;63185;45.642;13.764;2024-02-28T14:56:08;18.40;69.80
74657;DHT22;63185;45.642;13.764;2024-02-28T14:58:34;18.40;68.50
74657;DHT22;63185;45.642;13.764;2024-02-28T15:01:03;18.30;67.10
74657;DHT22;63185;45.642;13.764;2024-02-28T15:03:30;18.40;68.60
74657;DHT22;63185;45.642;13.764;2024-02-28T15:05:56;18.50;68.70
74657;DHT22;63185;45.642;13.764;2024-02-28T15:08:21;18.60;69.20